createdAt,value
2019-02-25T00:00:22.191Z,98656.78
2019-02-25T00:02:55.853Z,98653.41
2019-02-25T00:05:27.940Z,98642.83
2019-02-25T00:07:59.715Z,98645.73
2019-02-25T00:10:31.656Z,98646.67
2019-02-25T00:13:03.718Z,98648.06
2019-02-25T00:15:35.941Z,98640.98
2019-02-25T00:18:08.040Z,98631.42
2019-02-25T00:20:39.993Z,98630.19
2019-02-25T00:23:12.064Z,98628.33
2019-02-25T00:25:44.086Z,98633.62
2019-02-25T00:28:16.038Z,98635.92
2019-02-25T00:30:48.163Z,98628.61
2019-02-25T00:33:20.063Z,98633.78
2019-02-25T00:35:51.958Z,98635.81
2019-02-25T00:38:24.035Z,98630.66
2019-02-25T00:40:56.043Z,98635.52
2019-02-25T00:43:28.024Z,98630.92
2019-02-25T00:45:59.876Z,98637.67
2019-02-25T00:48:31.808Z,98645.97
2019-02-25T00:51:04.115Z,98628.49
2019-02-25T00:53:37.229Z,98647.19
2019-02-25T00:56:09.311Z,98642.53
2019-02-25T00:58:41.290Z,98641.59
2019-02-25T01:01:13.215Z,98649.77
2019-02-25T01:03:45.300Z,98649.86
2019-02-25T01:06:17.557Z,98648.08
2019-02-25T01:08:49.692Z,98645.52
2019-02-25T01:11:21.868Z,98646.62
2019-02-25T01:13:53.814Z,98643.79
2019-02-25T01:16:25.793Z,98643.39
2019-02-25T01:18:57.799Z,98641.64
2019-02-25T01:21:29.723Z,98639.86
2019-02-25T01:24:01.572Z,98640.39
2019-02-25T01:26:33.570Z,98642.69
2019-02-25T01:29:05.425Z,98646.53
2019-02-25T01:31:37.419Z,98639.20
2019-02-25T01:34:09.377Z,98637.98
2019-02-25T01:36:41.311Z,98635.78
2019-02-25T01:39:13.243Z,98626.81
2019-02-25T01:41:45.089Z,98628.23
2019-02-25T01:44:16.955Z,98627.73
2019-02-25T01:46:48.873Z,98621.53
2019-02-25T01:49:20.926Z,98630.20
2019-02-25T01:51:52.780Z,98623.45
2019-02-25T01:54:24.638Z,98626.04
2019-02-25T01:56:56.571Z,98625.08
2019-02-25T01:59:28.484Z,98624.75
2019-02-25T02:02:00.595Z,98618.99
2019-02-25T02:04:32.381Z,98618.34
2019-02-25T02:07:04.274Z,98614.53
2019-02-25T02:09:37.515Z,98614.02
2019-02-25T02:12:09.513Z,98616.25
2019-02-25T02:14:41.358Z,98620.35
2019-02-25T02:17:13.362Z,98624.52
2019-02-25T02:19:45.213Z,98635.05
2019-02-25T02:22:17.097Z,98636.05
2019-02-25T02:24:48.883Z,98631.01
2019-02-25T02:27:20.650Z,98629.58
2019-02-25T02:29:52.441Z,98620.19
2019-02-25T02:32:24.364Z,98615.42
2019-02-25T02:34:56.379Z,98617.33
2019-02-25T02:37:28.240Z,98623.19
2019-02-25T02:40:00.341Z,98623.30
2019-02-25T02:42:32.333Z,98627.34
2019-02-25T02:45:17.310Z,98629.37
2019-02-25T02:48:15.687Z,98634.27
2019-02-25T02:50:47.795Z,98621.17
2019-02-25T02:53:19.891Z,98627.02
2019-02-25T02:55:52.689Z,98623.09
2019-02-25T02:58:24.629Z,98624.20
2019-02-25T03:00:56.529Z,98623.97
2019-02-25T03:03:28.430Z,98619.18
2019-02-25T03:06:00.273Z,98616.36
2019-02-25T03:08:32.099Z,98629.16
2019-02-25T03:11:03.982Z,98629.61
2019-02-25T03:13:35.721Z,98618.40
2019-02-25T03:16:07.545Z,98623.80
2019-02-25T03:18:39.272Z,98621.70
2019-02-25T03:21:11.790Z,98624.97
2019-02-25T03:23:43.514Z,98625.02
2019-02-25T03:26:15.526Z,98631.13
2019-02-25T03:28:47.332Z,98633.50
2019-02-25T03:31:19.102Z,98625.59
2019-02-25T03:33:50.819Z,98629.16
2019-02-25T03:36:22.562Z,98633.55
2019-02-25T03:38:54.372Z,98628.95
2019-02-25T03:41:26.130Z,98633.02
2019-02-25T03:43:57.858Z,98622.64
2019-02-25T03:46:29.604Z,98630.14
2019-02-25T03:49:01.593Z,98633.72
2019-02-25T03:51:33.501Z,98630.63
2019-02-25T03:54:05.462Z,98628.39
2019-02-25T03:56:37.797Z,98619.18
2019-02-25T03:59:09.681Z,98618.55
2019-02-25T04:01:41.562Z,98618.78
2019-02-25T04:04:13.684Z,98625.27
2019-02-25T04:06:45.579Z,98618.56
2019-02-25T04:09:17.561Z,98621.48
2019-02-25T04:11:49.433Z,98628.19
2019-02-25T04:14:21.463Z,98621.71
2019-02-25T04:16:53.249Z,98627.80
2019-02-25T04:19:25.052Z,98635.36
2019-02-25T04:21:56.810Z,98632.66
2019-02-25T04:24:28.598Z,98638.77
2019-02-25T04:27:00.319Z,98621.81
2019-02-25T04:29:32.481Z,98625.66
2019-02-25T04:32:04.230Z,98628.09
2019-02-25T04:34:35.970Z,98631.69
2019-02-25T04:37:07.980Z,98628.09
2019-02-25T04:39:39.716Z,98623.66
2019-02-25T04:42:12.215Z,98628.13
2019-02-25T04:44:44.033Z,98628.45
2019-02-25T04:47:15.797Z,98623.52
2019-02-25T04:49:47.533Z,98627.40
2019-02-25T04:52:20.210Z,98628.65
2019-02-25T04:54:51.975Z,98632.17
2019-02-25T04:57:23.724Z,98636.09
2019-02-25T04:59:55.468Z,98628.68
2019-02-25T05:02:27.244Z,98630.65
2019-02-25T05:04:59.009Z,98632.50
2019-02-25T05:07:31.013Z,98639.97
2019-02-25T05:10:02.748Z,98637.24
2019-02-25T05:12:34.615Z,98647.55
2019-02-25T05:15:06.762Z,98645.96
2019-02-25T05:17:38.573Z,98646.99
2019-02-25T05:20:11.434Z,98646.55
2019-02-25T05:22:43.190Z,98647.03
2019-02-25T05:25:15.094Z,98645.96
2019-02-25T05:27:47.829Z,98643.48
2019-02-25T05:30:19.805Z,98643.64
2019-02-25T05:32:51.602Z,98639.09
2019-02-25T05:35:23.331Z,98635.43
2019-02-25T05:37:56.060Z,98645.78
2019-02-25T05:40:27.965Z,98639.31
2019-02-25T05:42:59.717Z,98634.80
2019-02-25T05:45:31.628Z,98635.69
2019-02-25T05:48:03.468Z,98640.86
2019-02-25T05:50:35.373Z,98643.14
2019-02-25T05:53:08.869Z,98648.56
2019-02-25T05:55:40.572Z,98644.17
2019-02-25T05:58:12.331Z,98644.58
2019-02-25T06:00:44.321Z,98644.69
2019-02-25T06:03:16.086Z,98650.33
2019-02-25T06:05:48.135Z,98644.92
2019-02-25T06:08:19.884Z,98644.58
2019-02-25T06:10:52.012Z,98653.02
2019-02-25T06:13:24.007Z,98655.80
2019-02-25T06:15:56.247Z,98655.27
2019-02-25T06:18:28.207Z,98661.92
2019-02-25T06:21:00.295Z,98660.02
2019-02-25T06:23:32.299Z,98664.38
2019-02-25T06:26:04.301Z,98661.31
2019-02-25T06:28:36.175Z,98660.36
2019-02-25T06:31:08.065Z,98662.57
2019-02-25T06:33:40.149Z,98668.25
2019-02-25T06:36:12.027Z,98660.84
2019-02-25T06:38:43.855Z,98661.31
2019-02-25T06:41:15.726Z,98655.12
2019-02-25T06:43:47.678Z,98656.22
2019-02-25T06:46:19.566Z,98652.27
2019-02-25T06:48:52.033Z,98645.09
2019-02-25T06:51:23.901Z,98640.77
2019-02-25T06:53:55.914Z,98647.39
2019-02-25T06:56:27.834Z,98642.02
2019-02-25T06:58:59.740Z,98652.22
2019-02-25T07:01:31.557Z,98648.91
2019-02-25T07:04:23.453Z,98643.33
2019-02-25T07:07:05.487Z,98642.56
2019-02-25T07:10:08.567Z,98638.13
2019-02-25T07:13:01.480Z,98641.34
2019-02-25T07:16:01.346Z,98642.78
2019-02-25T07:18:54.965Z,98641.84
2019-02-25T07:21:35.268Z,98653.30
2019-02-25T07:24:25.271Z,98644.66
2019-02-25T07:27:19.886Z,98641.17
2019-02-25T07:30:02.054Z,98642.77
2019-02-25T07:33:07.977Z,98645.48
2019-02-25T07:36:10.584Z,98642.00
2019-02-25T07:38:59.970Z,98641.88
2019-02-25T07:41:46.140Z,98649.88
2019-02-25T07:44:37.633Z,98644.27
2019-02-25T07:47:16.710Z,98640.75
2019-02-25T07:50:15.297Z,98653.67
2019-02-25T07:53:14.793Z,98643.70
2019-02-25T07:56:02.334Z,98652.28
2019-02-25T07:58:46.409Z,98648.34
2019-02-25T08:01:43.081Z,98647.92
2019-02-25T08:04:29.208Z,98638.27
2019-02-25T08:07:07.475Z,98644.69
2019-02-25T08:10:00.803Z,98650.84
2019-02-25T08:12:54.409Z,98648.61
2019-02-25T08:15:47.907Z,98652.20
2019-02-25T08:18:37.282Z,98651.75
2019-02-25T08:21:40.046Z,98652.78
2019-02-25T08:24:18.953Z,98653.76
2019-02-25T08:27:24.904Z,98648.28
2019-02-25T08:30:15.800Z,98644.19
2019-02-25T08:33:04.861Z,98639.86
2019-02-25T08:37:02.462Z,98646.73
2019-02-25T08:39:44.427Z,98656.42
2019-02-25T08:42:33.220Z,98661.84
2019-02-25T08:45:17.753Z,98658.46
2019-02-25T08:47:56.146Z,98662.66
2019-02-25T08:50:28.033Z,98665.42
2019-02-25T08:52:59.908Z,98662.00
2019-02-25T08:55:31.709Z,98659.06
2019-02-25T08:58:03.595Z,98664.05
2019-02-25T09:00:35.508Z,98652.98
2019-02-25T09:03:09.036Z,98659.13
2019-02-25T09:05:40.776Z,98665.08
2019-02-25T09:08:12.583Z,98660.90
2019-02-25T09:10:44.373Z,98669.77
2019-02-25T09:13:16.271Z,98670.95
2019-02-25T09:15:48.074Z,98660.40
2019-02-25T09:18:19.957Z,98663.65
2019-02-25T09:20:51.707Z,98663.16
2019-02-25T09:23:23.455Z,98663.70
2019-02-25T09:25:55.180Z,98660.63
2019-02-25T09:28:26.927Z,98668.55
2019-02-25T09:30:58.668Z,98660.58
2019-02-25T09:33:30.401Z,98656.91
2019-02-25T09:36:02.131Z,98652.44
2019-02-25T09:38:33.947Z,98650.44
2019-02-25T09:41:05.745Z,98651.77
2019-02-25T09:43:37.505Z,98651.51
2019-02-25T09:46:09.332Z,98656.38
2019-02-25T09:48:41.335Z,98652.83
2019-02-25T09:51:13.065Z,98650.22
2019-02-25T09:53:44.810Z,98654.71
2019-02-25T09:56:16.563Z,98651.71
2019-02-25T09:58:48.307Z,98651.06
2019-02-25T10:01:20.360Z,98657.49
2019-02-25T10:03:52.090Z,98653.55
2019-02-25T10:06:23.903Z,98661.23
2019-02-25T10:08:55.878Z,98657.14
2019-02-25T10:11:27.850Z,98651.50
2019-02-25T10:13:59.669Z,98653.33
2019-02-25T10:16:31.476Z,98650.28
2019-02-25T10:19:03.296Z,98651.25
2019-02-25T10:21:35.043Z,98653.07
2019-02-25T10:24:06.926Z,98643.26
2019-02-25T10:26:38.894Z,98645.81
2019-02-25T10:29:11.982Z,98642.68
2019-02-25T10:31:43.838Z,98632.22
2019-02-25T10:34:17.916Z,98624.44
2019-02-25T10:36:50.300Z,98635.38
2019-02-25T10:43:07.834Z,98630.00
2019-02-25T10:44:58.812Z,98626.08
2019-02-25T10:47:30.617Z,98629.59
2019-02-25T10:52:41.214Z,98632.17
2019-02-25T10:58:27.376Z,98641.30
2019-02-25T11:01:00.669Z,98640.91
2019-02-25T11:03:32.676Z,98630.06
2019-02-25T11:06:04.557Z,98633.28
2019-02-25T11:08:37.801Z,98630.86
2019-02-25T11:11:16.289Z,98623.08
2019-02-25T11:13:49.357Z,98622.28
2019-02-25T11:16:21.405Z,98623.13
2019-02-25T11:18:55.056Z,98622.53
2019-02-25T11:21:35.408Z,98617.02
2019-02-25T11:24:16.535Z,98619.05
2019-02-25T11:26:48.302Z,98620.97
2019-02-25T11:29:30.349Z,98617.70
2019-02-25T11:32:02.413Z,98614.50
2019-02-25T11:34:35.746Z,98612.55
2019-02-25T11:37:08.059Z,98607.47
2019-02-25T11:42:36.425Z,98596.69
2019-02-25T11:45:14.083Z,98597.84
2019-02-25T11:48:40.736Z,98594.41
2019-02-25T11:50:50.057Z,98593.98
2019-02-25T11:53:21.860Z,98591.47
2019-02-25T11:55:53.686Z,98591.95
2019-02-25T11:58:25.439Z,98588.72
2019-02-25T12:00:57.248Z,98574.79
2019-02-25T12:03:28.988Z,98586.22
2019-02-25T12:06:00.806Z,98586.95
2019-02-25T12:08:32.542Z,98588.22
2019-02-25T12:11:04.295Z,98584.91
2019-02-25T12:13:36.151Z,98581.52
2019-02-25T12:16:07.968Z,98579.62
2019-02-25T12:18:39.833Z,98574.98
2019-02-25T12:21:11.792Z,98572.91
2019-02-25T12:23:44.102Z,98571.32
2019-02-25T12:26:15.991Z,98566.64
2019-02-25T12:28:47.727Z,98553.70
2019-02-25T12:31:19.476Z,98553.91
2019-02-25T12:33:51.218Z,98546.47
2019-02-25T12:36:22.970Z,98544.34
2019-02-25T12:38:54.704Z,98548.48
2019-02-25T12:41:27.313Z,98538.06
2019-02-25T12:43:59.369Z,98540.20
2019-02-25T12:46:31.119Z,98538.52
2019-02-25T12:49:02.929Z,98537.94
2019-02-25T12:51:34.748Z,98534.95
2019-02-25T12:54:06.640Z,98531.88
2019-02-25T12:56:38.385Z,98526.08
2019-02-25T12:59:11.465Z,98518.16
2019-02-25T13:01:43.271Z,98513.59
2019-02-25T13:04:15.109Z,98513.27
2019-02-25T13:06:46.845Z,98513.91
2019-02-25T13:09:18.670Z,98504.53
2019-02-25T13:11:50.419Z,98507.88
2019-02-25T13:14:22.423Z,98502.80
2019-02-25T13:16:54.150Z,98494.23
2019-02-25T13:19:25.983Z,98496.66
2019-02-25T13:21:57.746Z,98491.73
2019-02-25T13:24:30.853Z,98488.97
2019-02-25T13:27:03.822Z,98484.69
2019-02-25T13:29:36.584Z,98481.66
2019-02-25T13:32:08.391Z,98473.50
2019-02-25T13:34:40.140Z,98470.42
2019-02-25T13:37:12.123Z,98468.13
2019-02-25T13:39:43.889Z,98460.45
2019-02-25T13:42:15.622Z,98465.75
2019-02-25T13:44:47.371Z,98464.81
2019-02-25T13:47:19.427Z,98456.48
2019-02-25T13:49:51.427Z,98442.81
2019-02-25T13:52:23.234Z,98449.78
2019-02-25T13:54:54.989Z,98445.13
2019-02-25T13:57:26.814Z,98439.61
2019-02-25T13:59:58.546Z,98440.79
2019-02-25T14:02:30.369Z,98433.41
2019-02-25T14:05:02.290Z,98430.75
2019-02-25T14:07:34.361Z,98427.15
2019-02-25T14:10:08.597Z,98431.50
2019-02-25T14:12:40.422Z,98419.14
2019-02-25T14:15:14.349Z,98418.83
2019-02-25T14:17:46.192Z,98410.83
2019-02-25T14:20:19.069Z,98407.47
2019-02-25T14:22:50.945Z,98405.09
2019-02-25T14:25:23.866Z,98396.61
2019-02-25T14:27:55.877Z,98394.34
2019-02-25T14:30:27.874Z,98396.07
2019-02-25T14:32:59.827Z,98390.06
2019-02-25T14:35:31.733Z,98388.26
2019-02-25T14:38:08.208Z,98383.89
2019-02-25T14:40:39.704Z,98388.23
2019-02-25T14:43:14.826Z,98389.29
2019-02-25T14:45:46.559Z,98385.22
2019-02-25T14:48:20.972Z,98377.77
2019-02-25T14:50:52.731Z,98376.86
2019-02-25T14:53:24.880Z,98375.44
2019-02-25T14:55:58.391Z,98368.05
2019-02-25T14:58:33.447Z,98374.73
2019-02-25T15:01:04.262Z,98369.82
2019-02-25T15:03:36.028Z,98371.77
2019-02-25T15:06:07.910Z,98380.94
2019-02-25T15:08:39.743Z,98375.27
2019-02-25T15:11:13.037Z,98375.87
2019-02-25T15:13:45.314Z,98369.58
2019-02-25T15:16:17.169Z,98368.71
2019-02-25T15:18:49.320Z,98365.62
2019-02-25T15:21:21.138Z,98367.23
2019-02-25T15:23:53.978Z,98374.25
2019-02-25T15:26:27.683Z,98365.83
2019-02-25T15:29:00.711Z,98356.95
2019-02-25T15:31:33.238Z,98360.89
2019-02-25T15:34:05.335Z,98355.02
2019-02-25T15:36:37.405Z,98349.25
2019-02-25T15:39:11.346Z,98352.55
2019-02-25T15:41:44.391Z,98355.03
2019-02-25T15:44:16.892Z,98359.94
2019-02-25T15:46:48.692Z,98351.14
2019-02-25T15:49:21.739Z,98356.17
2019-02-25T15:51:54.116Z,98351.19
2019-02-25T15:54:28.929Z,98356.50
2019-02-25T15:56:59.588Z,98360.00
2019-02-25T15:59:32.217Z,98357.48
2019-02-25T16:02:07.477Z,98353.39
2019-02-25T16:04:40.279Z,98352.41
2019-02-25T16:07:12.827Z,98350.70
2019-02-25T16:09:44.986Z,98360.31
2019-02-25T16:12:16.818Z,98362.48
2019-02-25T16:14:49.292Z,98362.36
2019-02-25T16:17:24.153Z,98369.63
2019-02-25T16:19:55.962Z,98365.89
2019-02-25T16:22:28.242Z,98363.64
2019-02-25T16:25:03.030Z,98362.71
2019-02-25T16:27:35.712Z,98374.24
2019-02-25T16:30:08.632Z,98376.20
2019-02-25T16:32:42.175Z,98382.64
2019-02-25T16:35:14.236Z,98385.87
2019-02-25T16:37:45.979Z,98386.33
2019-02-25T16:40:17.944Z,98387.84
2019-02-25T16:42:50.136Z,98391.16
2019-02-25T16:45:21.922Z,98396.75
2019-02-25T16:47:54.065Z,98391.91
2019-02-25T16:50:26.061Z,98403.09
2019-02-25T16:52:58.471Z,98403.10
2019-02-25T16:55:30.723Z,98406.77
2019-02-25T16:58:04.225Z,98412.01
2019-02-25T17:00:37.629Z,98410.41
2019-02-25T17:03:13.701Z,98416.39
2019-02-25T17:05:47.809Z,98424.95
2019-02-25T17:08:21.143Z,98418.16
2019-02-25T17:10:53.987Z,98423.65
2019-02-25T17:13:26.375Z,98426.22
2019-02-25T17:15:58.301Z,98427.31
2019-02-25T17:18:31.236Z,98426.29
2019-02-25T17:21:05.096Z,98431.59
2019-02-25T17:23:38.789Z,98429.73
2019-02-25T17:26:12.596Z,98424.94
2019-02-25T17:28:44.718Z,98429.88
2019-02-25T17:31:18.529Z,98433.34
2019-02-25T17:33:51.408Z,98432.02
2019-02-25T17:36:23.482Z,98437.41
2019-02-25T17:38:55.638Z,98444.83
2019-02-25T17:41:28.509Z,98445.63
2019-02-25T17:44:01.906Z,98441.91
2019-02-25T17:46:36.647Z,98446.94
2019-02-25T17:49:09.989Z,98446.19
2019-02-25T17:51:42.091Z,98445.09
2019-02-25T17:54:14.666Z,98449.50
2019-02-25T17:56:49.224Z,98445.19
2019-02-25T17:59:22.975Z,98446.75
2019-02-25T18:01:54.896Z,98453.63
2019-02-25T18:04:28.240Z,98451.91
2019-02-25T18:07:00.540Z,98457.24
2019-02-25T18:09:32.351Z,98456.20
2019-02-25T18:12:05.987Z,98460.09
2019-02-25T18:14:39.010Z,98466.36
2019-02-25T18:17:14.831Z,98465.22
2019-02-25T18:19:45.622Z,98466.64
2019-02-25T18:22:19.030Z,98458.31
2019-02-25T18:24:51.114Z,98464.48
2019-02-25T18:27:23.627Z,98461.35
2019-02-25T18:29:57.085Z,98464.94
2019-02-25T18:32:30.477Z,98456.59
2019-02-25T18:35:03.500Z,98452.95
2019-02-25T18:37:37.747Z,98460.80
2019-02-25T18:40:13.636Z,98464.64
2019-02-25T18:42:45.873Z,98459.91
2019-02-25T18:45:18.972Z,98464.64
2019-02-25T18:47:52.203Z,98452.95
2019-02-25T18:50:26.344Z,98459.55
2019-02-25T18:52:59.554Z,98465.11
2019-02-25T18:55:34.098Z,98467.20
2019-02-25T18:58:09.630Z,98461.95
2019-02-25T19:00:44.366Z,98458.42
2019-02-25T19:03:16.181Z,98460.87
2019-02-25T19:05:49.006Z,98467.66
2019-02-25T19:08:22.958Z,98470.75
2019-02-25T19:10:57.133Z,98465.44
2019-02-25T19:13:29.938Z,98470.24
2019-02-25T19:16:03.070Z,98468.13
2019-02-25T19:18:36.325Z,98469.09
2019-02-25T19:21:10.465Z,98464.23
2019-02-25T19:23:44.013Z,98465.92
2019-02-25T19:26:17.397Z,98464.78
2019-02-25T19:28:50.125Z,98465.03
2019-02-25T19:31:26.043Z,98468.10
2019-02-25T19:34:00.279Z,98477.34
2019-02-25T19:36:33.458Z,98472.23
2019-02-25T19:39:09.393Z,98471.09
2019-02-25T19:41:45.108Z,98474.63
2019-02-25T19:44:15.130Z,98475.02
2019-02-25T19:46:48.643Z,98471.08
2019-02-25T19:49:21.257Z,98464.62
2019-02-25T19:51:53.205Z,98480.85
2019-02-25T19:54:25.286Z,98484.31
2019-02-25T19:56:57.960Z,98477.78
2019-02-25T19:59:31.033Z,98480.23
2019-02-25T20:02:03.040Z,98486.88
2019-02-25T20:04:35.959Z,98490.95
2019-02-25T20:07:25.718Z,98486.16
2019-02-25T20:09:52.956Z,98479.73
2019-02-25T20:12:28.047Z,98473.39
2019-02-25T20:15:00.501Z,98473.51
2019-02-25T20:17:33.039Z,98469.14
2019-02-25T20:20:08.144Z,98476.20
2019-02-25T20:22:47.125Z,98475.00
2019-02-25T20:25:21.121Z,98476.16
2019-02-25T20:27:54.982Z,98479.77
2019-02-25T20:30:28.220Z,98481.75
2019-02-25T20:33:01.234Z,98480.36
2019-02-25T20:35:34.208Z,98479.91
2019-02-25T20:38:06.207Z,98475.73
2019-02-25T20:40:38.329Z,98479.25
2019-02-25T20:43:10.689Z,98480.11
2019-02-25T20:45:42.785Z,98482.80
2019-02-25T20:48:14.733Z,98481.68
2019-02-25T20:50:46.571Z,98483.44
2019-02-25T20:53:18.740Z,98476.47
2019-02-25T20:55:52.464Z,98474.88
2019-02-25T20:58:24.470Z,98478.09
2019-02-25T21:00:56.487Z,98470.06
2019-02-25T21:03:28.407Z,98469.21
2019-02-25T21:06:02.568Z,98470.91
2019-02-25T21:08:35.360Z,98466.00
2019-02-25T21:11:10.942Z,98473.91
2019-02-25T21:13:41.553Z,98482.10
2019-02-25T21:16:13.462Z,98485.11
2019-02-25T21:18:46.571Z,98483.38
2019-02-25T21:21:19.262Z,98475.02
2019-02-25T21:23:51.186Z,98474.82
2019-02-25T21:26:25.440Z,98478.63
2019-02-25T21:28:58.508Z,98470.36
2019-02-25T21:31:30.905Z,98475.44
2019-02-25T21:34:03.197Z,98471.14
2019-02-25T21:36:35.932Z,98467.47
2019-02-25T21:39:12.277Z,98469.52
2019-02-25T21:41:45.910Z,98474.61
2019-02-25T21:44:20.906Z,98457.72
2019-02-25T21:46:53.795Z,98469.86
2019-02-25T21:49:26.857Z,98470.86
2019-02-25T21:52:02.119Z,98472.98
2019-02-25T21:54:32.116Z,98471.81
2019-02-25T21:57:05.391Z,98460.94
2019-02-25T21:59:38.711Z,98464.13
2019-02-25T22:02:11.507Z,98459.89
2019-02-25T22:04:45.404Z,98466.45
2019-02-25T22:07:22.246Z,98464.94
2019-02-25T22:09:50.706Z,98463.02
2019-02-25T22:12:22.583Z,98461.21
2019-02-25T22:14:54.502Z,98462.67
2019-02-25T22:17:26.669Z,98460.13
2019-02-25T22:19:58.447Z,98459.56
2019-02-25T22:22:31.636Z,98448.20
2019-02-25T22:25:06.676Z,98447.45
2019-02-25T22:27:39.091Z,98458.53
2019-02-25T22:30:14.646Z,98462.95
2019-02-25T22:32:46.821Z,98456.63
2019-02-25T22:35:18.667Z,98450.81
2019-02-25T22:37:52.659Z,98452.73
2019-02-25T22:40:24.041Z,98456.78
2019-02-25T22:42:56.803Z,98459.75
2019-02-25T22:45:30.930Z,98466.06
2019-02-25T22:48:03.719Z,98466.95
2019-02-25T22:50:37.646Z,98463.45
2019-02-25T22:53:11.156Z,98470.86
2019-02-25T22:55:44.816Z,98460.22
2019-02-25T22:58:17.069Z,98456.84
2019-02-25T23:00:53.937Z,98465.98
2019-02-25T23:03:27.687Z,98471.33
2019-02-25T23:05:59.615Z,98469.13
2019-02-25T23:08:31.732Z,98465.66
2019-02-25T23:11:03.876Z,98470.22
2019-02-25T23:13:35.645Z,98462.37
2019-02-25T23:16:07.791Z,98464.70
2019-02-25T23:18:39.600Z,98461.77
2019-02-25T23:21:11.629Z,98462.89
2019-02-25T23:23:43.373Z,98462.11
2019-02-25T23:26:16.895Z,98467.90
2019-02-25T23:28:49.273Z,98468.39
2019-02-25T23:31:22.004Z,98463.14
2019-02-25T23:33:53.778Z,98468.65
2019-02-25T23:36:26.556Z,98462.92
2019-02-25T23:38:59.580Z,98462.52
2019-02-25T23:41:34.658Z,98457.89
2019-02-25T23:44:08.658Z,98461.98
2019-02-25T23:46:39.997Z,98460.17
2019-02-25T23:49:12.786Z,98474.64
2019-02-25T23:51:45.913Z,98463.52
2019-02-25T23:54:18.478Z,98474.85
2019-02-25T23:56:52.556Z,98484.67
2019-02-25T23:59:26.592Z,98472.09
